Accueil
METAR-TAF:

METAR-TAF

Aéroports :

Aéroport de Nice-Côte d'Azur

Nice, France

latitude: 43-39N, longitude: 007-12E, altitude: 4 m

Observation

Le bulletin a été fait il y a 22 minutes, à 15:00 UTC
Vent 6 kt de sud
Température 27°C
Humidité 62%
Pression 1017 hPa
Visibilité 10 km ou plus
pas de nuages en-dessous de 1500 mètres et pas de cumulonimbus.

METAR: LFMN 091500Z 17006KT CAVOK 27/19 Q1017 NOSIG

Heure: 17:22 (15:22 UTC)

Prévision

Le bulletin a été fait il y a 1 heure et 22 minutes, à 14:00 UTC
Prévision valable du 09 à 15 UTC au 10 à 21 UTC
Vent 5 kt de sud/sud-est
Visibilité 10 km ou plus
pas de nuages en-dessous de 1500 mètres et pas de cumulonimbus.
Temporairement
du 09 à 16 UTC au 09 à 18 UTC
Vent 10 kt de sud

TAF: LFMN 091400Z 0915/1021 16005KT CAVOK TEMPO 0916/0918 19010KT

Observations et prévisions météorologiques de plus de 4000 aéroports (messages METAR et TAF).

Les stations disponibles sont représentées par des disques jaunes et rouges sur la carte.

Passer la souris dessus pour voir le nom de la station.

Cliquer dessus pour voir les observations et prévisions météorologiques.

Pour changer de carte: cliquez sur les boutons verts avec une croix noire pour zoomer, sur le bouton vert avec un tiret pour effectuer un zoom arrière, ou sur les flèches vertes pour les cartes adjacentes.


METAR-TAF: